Time;durP1;ratioP1;P1;durP2;ratioP2;P2;SDS_P1;SDS_P2;PMS_P1;PMS_P2;Temp;Humidity;BMP_temperature;BMP_pressure;BME280_temperature;BME280_humidity;BME280_pressure;Samples;Min_cycle;Max_cycle;Signal;HPM_P1;HPM_P2
2024/03/04 00:02:10;;;;;;;25.88;18.17;;;10.00;99.90;;;;;;5087927;28;20488;-75
2024/03/04 00:04:39;;;;;;;27.52;19.23;;;9.90;99.90;;;;;;5087187;28;20026;-74
2024/03/04 00:07:05;;;;;;;27.42;17.77;;;9.90;99.90;;;;;;5087731;28;20031;-74
2024/03/04 00:09:31;;;;;;;27.50;17.55;;;9.80;99.90;;;;;;5068957;28;20035;-74
2024/03/04 00:11:56;;;;;;;23.27;16.08;;;9.80;99.90;;;;;;5087397;28;20425;-74
2024/03/04 00:14:23;;;;;;;26.70;18.38;;;9.80;99.90;;;;;;5068905;28;20073;-75
2024/03/04 00:16:49;;;;;;;26.80;19.35;;;9.80;99.90;;;;;;5069390;28;20027;-74
2024/03/04 00:19:18;;;;;;;26.92;17.15;;;9.80;99.90;;;;;;5068069;28;20035;-75
2024/03/04 00:21:45;;;;;;;28.80;18.95;;;9.80;99.90;;;;;;5087893;28;20013;-74
2024/03/04 00:24:10;;;;;;;30.63;20.52;;;9.80;99.90;;;;;;5068439;28;20077;-74
2024/03/04 00:26:36;;;;;;;27.70;17.40;;;9.80;99.90;;;;;;5087345;28;20021;-74
2024/03/04 00:29:03;;;;;;;30.20;19.92;;;9.80;99.90;;;;;;5068426;28;20411;-75
2024/03/04 00:31:30;;;;;;;28.17;20.55;;;9.80;99.90;;;;;;5087344;28;20113;-75
2024/03/04 00:33:56;;;;;;;30.38;22.27;;;9.90;99.90;;;;;;5088677;28;20036;-74
2024/03/04 00:36:23;;;;;;;31.95;21.17;;;9.90;99.90;;;;;;5089428;28;20035;-75
2024/03/04 00:38:51;;;;;;;35.97;22.15;;;9.90;99.90;;;;;;5087470;28;20012;-73
2024/03/04 00:41:22;;;;;;;33.63;21.80;;;9.90;99.90;;;;;;5087312;28;20034;-74
2024/03/04 00:43:48;;;;;;;33.70;22.42;;;9.90;99.90;;;;;;5086938;28;20107;-74
2024/03/04 00:46:13;;;;;;;30.02;20.08;;;9.90;99.90;;;;;;5087033;28;20108;-74
2024/03/04 00:48:39;;;;;;;32.78;21.63;;;9.90;99.90;;;;;;5086820;28;20039;-75
2024/03/04 00:51:05;;;;;;;27.77;20.02;;;9.90;99.90;;;;;;5086960;28;20576;-74
2024/03/04 00:53:31;;;;;;;26.92;18.52;;;9.90;99.90;;;;;;5086726;28;20032;-74
2024/03/04 00:55:56;;;;;;;29.45;19.15;;;9.90;99.90;;;;;;5086643;28;20469;-74
2024/03/04 00:58:23;;;;;;;29.77;18.23;;;10.00;99.90;;;;;;5086249;28;20388;-74
2024/03/04 01:00:49;;;;;;;25.20;18.35;;;10.00;99.90;;;;;;5086392;28;20039;-74
2024/03/04 01:03:17;;;;;;;27.63;17.02;;;9.90;99.90;;;;;;5087814;28;20020;-74
2024/03/04 01:05:43;;;;;;;25.63;17.33;;;10.00;99.90;;;;;;5084403;28;20032;-75
2024/03/04 01:08:09;;;;;;;24.13;16.33;;;10.00;99.90;;;;;;5085772;28;20012;-75
2024/03/04 01:10:35;;;;;;;22.67;15.80;;;10.00;99.90;;;;;;5086371;28;20032;-74
2024/03/04 01:13:02;;;;;;;23.80;16.02;;;10.00;99.90;;;;;;5086160;28;20142;-75
2024/03/04 01:15:27;;;;;;;24.13;15.30;;;9.90;99.90;;;;;;5086997;28;20074;-74
2024/03/04 01:17:53;;;;;;;24.08;15.63;;;9.90;99.90;;;;;;5068403;28;20480;-74
2024/03/04 01:20:20;;;;;;;21.95;16.83;;;9.90;99.90;;;;;;5086070;28;20063;-74
2024/03/04 01:22:46;;;;;;;22.92;16.13;;;9.90;99.90;;;;;;5086437;28;20051;-74
2024/03/04 01:25:12;;;;;;;25.15;17.75;;;9.90;99.90;;;;;;5085950;28;20016;-74
2024/03/04 01:27:38;;;;;;;24.15;18.02;;;9.90;99.90;;;;;;5086574;28;20024;-74
2024/03/04 01:30:04;;;;;;;25.70;16.67;;;9.90;99.90;;;;;;5087090;28;20024;-74
2024/03/04 01:32:30;;;;;;;25.85;17.35;;;9.90;99.90;;;;;;5090984;28;20047;-74
2024/03/04 01:34:55;;;;;;;27.75;18.02;;;9.90;99.90;;;;;;5090522;28;20047;-74
2024/03/04 01:37:21;;;;;;;22.48;15.20;;;9.90;99.90;;;;;;5087229;28;20206;-74
2024/03/04 01:39:47;;;;;;;21.00;15.43;;;9.90;99.90;;;;;;5085491;28;20089;-74
2024/03/04 01:42:12;;;;;;;25.15;16.92;;;9.90;99.90;;;;;;5086137;28;20489;-74
2024/03/04 01:44:38;;;;;;;23.02;15.40;;;9.90;99.90;;;;;;5086172;28;20063;-75
2024/03/04 01:47:10;;;;;;;24.73;16.38;;;9.90;99.90;;;;;;5086885;28;20176;-75
2024/03/04 01:49:37;;;;;;;23.70;15.68;;;9.90;99.90;;;;;;5086240;28;20070;-74
2024/03/04 01:52:05;;;;;;;21.58;15.32;;;9.80;99.90;;;;;;5085967;28;20016;-74
2024/03/04 01:54:32;;;;;;;22.10;15.20;;;9.90;99.90;;;;;;5071540;28;20427;-74
2024/03/04 01:56:58;;;;;;;25.42;15.52;;;9.90;99.90;;;;;;5081172;28;20136;-74
2024/03/04 01:59:26;;;;;;;27.38;14.63;;;9.90;99.90;;;;;;5084089;28;20024;-74
2024/03/04 02:01:52;;;;;;;20.90;13.15;;;9.90;99.90;;;;;;5086777;28;20031;-74
2024/03/04 02:04:18;;;;;;;21.38;15.70;;;9.90;99.90;;;;;;5088099;28;20028;-74
2024/03/04 02:06:45;;;;;;;20.10;14.65;;;9.90;99.90;;;;;;5087121;28;20024;-74
2024/03/04 02:09:15;;;;;;;20.63;13.98;;;9.90;99.90;;;;;;5085476;28;20655;-74
2024/03/04 02:11:41;;;;;;;19.90;14.25;;;9.90;99.90;;;;;;5087668;28;20023;-74
2024/03/04 02:14:07;;;;;;;21.10;15.02;;;9.90;99.90;;;;;;5071460;28;20527;-73
2024/03/04 02:16:33;;;;;;;23.48;14.13;;;9.80;99.90;;;;;;5090196;28;20016;-73
2024/03/04 02:19:00;;;;;;;22.08;14.63;;;9.90;99.90;;;;;;5089005;28;20027;-74
2024/03/04 02:21:30;;;;;;;19.05;13.48;;;9.80;99.90;;;;;;5089807;28;20031;-74
2024/03/04 02:23:56;;;;;;;24.45;13.38;;;9.90;99.90;;;;;;5057539;28;20016;-73
2024/03/04 02:26:22;;;;;;;18.25;13.50;;;9.80;99.90;;;;;;5090118;28;20026;-74
2024/03/04 02:28:48;;;;;;;19.85;13.73;;;9.80;99.90;;;;;;5071377;28;20396;-73
2024/03/04 02:31:14;;;;;;;23.30;13.88;;;9.70;99.90;;;;;;5089652;28;20036;-72
2024/03/04 02:33:44;;;;;;;21.20;13.15;;;9.80;99.90;;;;;;5092084;28;20154;-74
2024/03/04 02:36:10;;;;;;;20.70;14.40;;;9.80;99.90;;;;;;5094239;28;20028;-74
2024/03/04 02:38:37;;;;;;;23.05;15.90;;;9.80;99.90;;;;;;5089185;28;21113;-74
2024/03/04 02:41:04;;;;;;;31.63;19.17;;;9.80;99.90;;;;;;5070889;28;20024;-74
2024/03/04 02:43:30;;;;;;;35.67;21.20;;;9.80;99.90;;;;;;5088946;28;20034;-74
2024/03/04 02:45:56;;;;;;;30.73;19.60;;;9.80;99.90;;;;;;5089063;28;20023;-74
2024/03/04 02:48:22;;;;;;;32.25;18.27;;;9.80;99.90;;;;;;5088848;28;20387;-74
2024/03/04 02:50:49;;;;;;;36.35;20.58;;;9.80;99.90;;;;;;5089116;28;20500;-75
2024/03/04 02:53:15;;;;;;;35.20;22.42;;;9.80;99.90;;;;;;5089382;28;20020;-75
2024/03/04 02:55:42;;;;;;;37.80;23.05;;;9.80;99.90;;;;;;5089245;28;20034;-75
2024/03/04 02:58:07;;;;;;;31.75;22.27;;;9.80;99.90;;;;;;5081318;28;20032;-75
2024/03/04 03:00:34;;;;;;;34.22;22.40;;;9.80;99.90;;;;;;5082524;28;20024;-75
2024/03/04 03:03:02;;;;;;;35.80;23.35;;;9.80;99.90;;;;;;5070706;28;20050;-75
2024/03/04 03:05:28;;;;;;;34.67;22.85;;;9.80;99.90;;;;;;5088771;28;20035;-75
2024/03/04 03:07:54;;;;;;;31.50;21.38;;;9.80;99.90;;;;;;5089089;28;20032;-75
2024/03/04 03:10:20;;;;;;;25.58;17.30;;;9.80;99.90;;;;;;5088731;28;20248;-75
2024/03/04 03:12:45;;;;;;;24.45;16.65;;;9.80;99.90;;;;;;5089236;28;20527;-75
2024/03/04 03:15:11;;;;;;;29.15;16.58;;;9.80;99.90;;;;;;5069812;28;20136;-75
2024/03/04 03:17:37;;;;;;;23.00;15.95;;;9.80;99.90;;;;;;5089248;28;20026;-75
2024/03/04 03:20:27;;;;;;;25.63;15.80;;;9.80;99.90;;;;;;5088438;28;20507;-75
2024/03/04 03:22:52;;;;;;;20.60;14.48;;;9.80;99.90;;;;;;5089417;28;20080;-74
2024/03/04 03:25:18;;;;;;;21.30;13.23;;;9.80;99.90;;;;;;5088765;28;20024;-75
2024/03/04 03:27:44;;;;;;;15.30;10.30;;;9.70;99.90;;;;;;5090068;28;20035;-75
2024/03/04 03:30:10;;;;;;;18.42;10.32;;;9.70;99.90;;;;;;5071191;28;20042;-74
2024/03/04 03:32:37;;;;;;;17.15;10.43;;;9.70;99.90;;;;;;5092735;28;20085;-75
2024/03/04 03:35:04;;;;;;;17.88;10.30;;;9.70;99.90;;;;;;5092757;28;20023;-74
2024/03/04 03:37:30;;;;;;;14.93;9.05;;;9.70;99.90;;;;;;5077710;28;20089;-75
2024/03/04 03:39:55;;;;;;;13.40;7.80;;;9.70;99.90;;;;;;5087847;28;20473;-74
2024/03/04 03:42:21;;;;;;;15.18;7.55;;;9.70;99.90;;;;;;5070067;28;20567;-74
2024/03/04 03:44:47;;;;;;;10.73;6.80;;;9.60;99.90;;;;;;5088016;28;20020;-75
2024/03/04 03:47:13;;;;;;;11.68;5.75;;;9.60;99.90;;;;;;5088735;28;20043;-73
2024/03/04 03:49:38;;;;;;;11.00;5.45;;;9.60;99.90;;;;;;5088260;28;20158;-75
2024/03/04 03:52:04;;;;;;;15.65;5.82;;;9.60;99.90;;;;;;5088955;28;20019;-76
2024/03/04 03:54:31;;;;;;;10.82;4.93;;;9.60;99.90;;;;;;5088134;28;20028;-74
2024/03/04 03:56:57;;;;;;;9.30;5.10;;;9.60;99.90;;;;;;5088754;28;20008;-74
2024/03/04 03:59:23;;;;;;;10.73;5.40;;;9.60;99.90;;;;;;5088044;28;20026;-75
2024/03/04 04:01:48;;;;;;;9.65;4.93;;;9.50;99.90;;;;;;5088376;28;20605;-74
2024/03/04 04:04:14;;;;;;;10.10;5.32;;;9.50;99.90;;;;;;5069219;28;20119;-73
2024/03/04 04:06:40;;;;;;;8.40;4.45;;;9.50;99.90;;;;;;5088369;28;20038;-76
2024/03/04 04:09:06;;;;;;;9.57;4.38;;;9.50;99.90;;;;;;5087807;28;20094;-75
2024/03/04 04:11:32;;;;;;;9.07;5.38;;;9.50;99.90;;;;;;5088192;28;20020;-75
2024/03/04 04:13:58;;;;;;;11.05;5.97;;;9.50;99.90;;;;;;5087542;28;20051;-75
2024/03/04 04:16:28;;;;;;;10.10;5.95;;;9.40;99.90;;;;;;5088269;28;20042;-75
2024/03/04 04:18:53;;;;;;;10.18;5.50;;;9.40;99.90;;;;;;5087559;28;20021;-75
2024/03/04 04:21:22;;;;;;;12.18;5.55;;;9.40;99.90;;;;;;5095369;28;20467;-71
2024/03/04 04:23:47;;;;;;;10.43;5.20;;;9.50;99.90;;;;;;5096898;28;20042;-72
2024/03/04 04:26:25;;;;;;;13.13;5.47;;;9.40;99.90;;;;;;5089351;28;20059;-75
2024/03/04 04:28:51;;;;;;;10.27;4.82;;;9.40;99.90;;;;;;5087291;28;20025;-75
2024/03/04 04:31:23;;;;;;;13.23;5.55;;;9.40;99.90;;;;;;5091513;28;20043;-75
2024/03/04 04:33:50;;;;;;;14.13;5.78;;;9.40;99.90;;;;;;5089901;28;20016;-75
2024/03/04 04:36:19;;;;;;;11.35;4.97;;;9.40;99.90;;;;;;5088153;28;20104;-75
2024/03/04 04:38:45;;;;;;;12.93;5.57;;;9.40;99.90;;;;;;5087392;28;20045;-74
2024/03/04 04:41:11;;;;;;;13.55;5.43;;;9.40;99.90;;;;;;5087207;28;20024;-75
2024/03/04 04:43:37;;;;;;;12.30;5.20;;;9.40;99.90;;;;;;5087478;28;20031;-75
2024/03/04 04:46:03;;;;;;;9.93;5.22;;;9.40;99.90;;;;;;5069179;28;20020;-75
2024/03/04 04:48:29;;;;;;;9.60;5.32;;;9.40;99.90;;;;;;5087875;28;20048;-75
2024/03/04 04:50:54;;;;;;;10.95;5.25;;;9.40;99.90;;;;;;5087522;28;20094;-75
2024/03/04 04:53:20;;;;;;;12.65;5.35;;;9.40;99.90;;;;;;5088330;28;20028;-75
2024/03/04 04:55:46;;;;;;;8.65;4.80;;;9.40;99.90;;;;;;5087252;28;20455;-74
2024/03/04 04:58:15;;;;;;;14.00;5.90;;;9.40;99.90;;;;;;5087419;28;20020;-75
2024/03/04 05:00:41;;;;;;;10.02;5.55;;;9.40;99.90;;;;;;5091131;28;20110;-75
2024/03/04 05:03:07;;;;;;;12.45;6.28;;;9.40;99.90;;;;;;5072451;28;20020;-76
2024/03/04 05:05:32;;;;;;;10.88;5.57;;;9.40;99.90;;;;;;5086815;28;20059;-75
2024/03/04 05:07:58;;;;;;;10.93;5.35;;;9.40;99.90;;;;;;5086982;28;20031;-75
2024/03/04 05:10:24;;;;;;;13.88;6.25;;;9.40;99.90;;;;;;5086621;28;20111;-75
2024/03/04 05:12:49;;;;;;;12.73;5.90;;;9.40;99.90;;;;;;5086953;28;20523;-75
2024/03/04 05:15:16;;;;;;;11.70;5.97;;;9.40;99.90;;;;;;5085934;28;20424;-75
2024/03/04 05:17:42;;;;;;;14.18;5.75;;;9.40;99.90;;;;;;5068387;28;20052;-75
2024/03/04 05:20:09;;;;;;;10.77;5.50;;;9.40;99.90;;;;;;5067558;28;20058;-75
2024/03/04 05:22:35;;;;;;;11.27;6.13;;;9.40;99.90;;;;;;5068310;28;20473;-75
2024/03/04 05:25:01;;;;;;;11.30;5.68;;;9.40;99.90;;;;;;5085911;28;20024;-74
2024/03/04 05:27:29;;;;;;;9.43;5.38;;;9.40;99.90;;;;;;5086895;28;20417;-75
2024/03/04 05:29:55;;;;;;;10.68;4.60;;;9.40;99.90;;;;;;5090062;28;20032;-75
2024/03/04 05:32:21;;;;;;;7.28;4.05;;;9.40;99.90;;;;;;5090665;28;20085;-75
2024/03/04 05:34:47;;;;;;;8.88;4.95;;;9.40;99.90;;;;;;5088964;28;20024;-75
2024/03/04 05:37:12;;;;;;;10.68;4.60;;;9.40;99.90;;;;;;5086216;28;20069;-75
2024/03/04 05:39:38;;;;;;;10.30;4.88;;;9.40;99.90;;;;;;5067483;28;20043;-74
2024/03/04 05:42:04;;;;;;;8.38;4.60;;;9.40;99.90;;;;;;5086088;28;20080;-72
2024/03/04 05:44:30;;;;;;;8.52;4.40;;;9.30;99.90;;;;;;5085856;28;20468;-74
2024/03/04 05:46:56;;;;;;;9.60;3.78;;;9.30;99.90;;;;;;5086311;28;20028;-74
2024/03/04 05:49:21;;;;;;;9.25;4.65;;;9.30;99.90;;;;;;5085557;28;20060;-74
2024/03/04 05:51:47;;;;;;;9.65;4.50;;;9.30;99.90;;;;;;5086982;28;20107;-74
2024/03/04 05:54:13;;;;;;;7.85;3.83;;;9.30;99.90;;;;;;5085558;28;20402;-74
2024/03/04 05:56:46;;;;;;;7.65;4.05;;;9.30;99.90;;;;;;5086163;28;20108;-75
2024/03/04 05:59:12;;;;;;;9.38;3.70;;;9.30;99.90;;;;;;5071493;28;20120;-74
2024/03/04 06:01:38;;;;;;;6.55;3.28;;;9.30;99.90;;;;;;5086038;28;20423;-75
2024/03/04 06:04:05;;;;;;;9.95;4.00;;;9.30;99.90;;;;;;5066969;28;20027;-74
2024/03/04 06:06:31;;;;;;;8.25;3.85;;;9.40;99.90;;;;;;5086010;28;20020;-74
2024/03/04 06:08:58;;;;;;;5.40;3.03;;;9.40;99.90;;;;;;5085393;28;20020;-74
2024/03/04 06:11:27;;;;;;;7.65;3.65;;;9.40;99.90;;;;;;5085526;28;20022;-74
2024/03/04 06:13:53;;;;;;;8.38;3.95;;;9.40;99.90;;;;;;5085301;28;20035;-74
2024/03/04 06:16:19;;;;;;;7.18;3.60;;;9.30;99.90;;;;;;5086052;28;20413;-74
2024/03/04 06:18:46;;;;;;;7.93;3.53;;;9.40;99.90;;;;;;5086071;28;20508;-75
2024/03/04 06:21:12;;;;;;;6.45;3.30;;;9.30;99.90;;;;;;5085699;28;20064;-75
2024/03/04 06:23:37;;;;;;;8.93;3.58;;;9.30;99.90;;;;;;5085894;28;20492;-75
2024/03/04 06:26:08;;;;;;;7.43;3.38;;;9.30;99.90;;;;;;5088662;28;20020;-75
2024/03/04 06:28:34;;;;;;;;;;;9.30;99.90;;;;;;5090972;28;20051;-75
2024/03/04 06:31:00;;;;;;;6.53;3.40;;;9.30;99.90;;;;;;5088580;28;19958;-75
2024/03/04 06:33:26;;;;;;;8.50;3.22;;;9.30;99.90;;;;;;5086217;28;20028;-74
2024/03/04 06:35:52;;;;;;;6.45;2.60;;;9.30;99.90;;;;;;5085507;28;20024;-74
2024/03/04 06:38:17;;;;;;;6.25;2.78;;;9.30;99.90;;;;;;5067616;28;20107;-74
2024/03/04 06:40:43;;;;;;;6.00;3.40;;;9.30;99.90;;;;;;5066826;28;20024;-74
2024/03/04 06:43:09;;;;;;;6.22;3.28;;;9.30;99.90;;;;;;5085373;28;20443;-74
2024/03/04 06:45:36;;;;;;;8.07;2.97;;;9.30;99.90;;;;;;5085403;28;20028;-75
2024/03/04 06:48:03;;;;;;;6.88;2.67;;;9.30;99.90;;;;;;5085309;28;20024;-74
2024/03/04 06:50:29;;;;;;;8.55;2.80;;;9.30;99.90;;;;;;5085014;28;20040;-74
2024/03/04 06:52:56;;;;;;;10.15;3.10;;;9.20;99.90;;;;;;5067073;28;20040;-74
2024/03/04 06:55:22;;;;;;;6.05;2.80;;;9.20;99.90;;;;;;5082468;28;20115;-74
2024/03/04 06:57:48;;;;;;;7.30;2.90;;;9.20;99.90;;;;;;5090260;28;20020;-74
2024/03/04 07:00:14;;;;;;;8.30;2.97;;;9.30;99.90;;;;;;5073938;28;20028;-74
2024/03/04 07:02:40;;;;;;;7.28;3.10;;;9.30;99.90;;;;;;5089510;28;20019;-74
2024/03/04 07:05:06;;;;;;;6.35;3.13;;;9.30;99.90;;;;;;5088831;28;20492;-74
2024/03/04 07:07:32;;;;;;;7.03;3.10;;;9.30;99.90;;;;;;5082595;28;20089;-72
2024/03/04 07:09:59;;;;;;;9.18;2.85;;;9.30;99.90;;;;;;5083454;28;20419;-74
2024/03/04 07:12:25;;;;;;;8.63;3.40;;;9.30;99.90;;;;;;5083829;28;20032;-75
2024/03/04 07:14:51;;;;;;;7.75;3.83;;;9.30;99.90;;;;;;5084465;28;20024;-73
2024/03/04 07:17:17;;;;;;;7.00;3.00;;;9.30;99.90;;;;;;5067384;28;20024;-74
2024/03/04 07:19:43;;;;;;;5.57;2.83;;;9.20;99.90;;;;;;5083587;28;20013;-74
2024/03/04 07:22:09;;;;;;;8.73;3.10;;;9.30;99.90;;;;;;5079948;28;20040;-74
2024/03/04 07:24:34;;;;;;;5.95;3.28;;;9.30;99.90;;;;;;5073599;28;20441;-74
2024/03/04 07:27:00;;;;;;;8.35;3.42;;;9.30;99.90;;;;;;5082766;28;20043;-74
2024/03/04 07:29:26;;;;;;;8.32;3.25;;;9.20;99.90;;;;;;5064088;28;20397;-74
2024/03/04 07:31:51;;;;;;;7.72;3.08;;;9.30;99.90;;;;;;5076661;28;20048;-74
2024/03/04 07:34:17;;;;;;;9.13;3.70;;;9.30;99.90;;;;;;5070094;28;20032;-74
2024/03/04 07:36:43;;;;;;;8.82;3.60;;;9.30;99.90;;;;;;5058693;28;20036;-72
2024/03/04 07:39:08;;;;;;;5.55;3.55;;;9.20;99.90;;;;;;5080271;28;20378;-73
2024/03/04 07:41:34;;;;;;;6.90;3.30;;;9.30;99.90;;;;;;5067770;28;20081;-74
2024/03/04 07:44:00;;;;;;;7.40;3.30;;;9.30;99.90;;;;;;5086144;28;20027;-74
2024/03/04 07:46:26;;;;;;;7.20;3.70;;;9.30;99.90;;;;;;5088333;28;20027;-74
2024/03/04 07:48:51;;;;;;;7.30;2.80;;;9.40;99.90;;;;;;5088393;28;20051;-74
2024/03/04 07:51:17;;;;;;;5.18;3.30;;;9.40;99.90;;;;;;5084150;28;20062;-74
2024/03/04 07:53:42;;;;;;;7.70;3.42;;;9.40;99.90;;;;;;5085115;28;20107;-74
2024/03/04 07:56:09;;;;;;;5.95;3.67;;;9.40;99.90;;;;;;5087003;28;20062;-74
2024/03/04 07:58:36;;;;;;;6.80;3.60;;;9.40;99.90;;;;;;5072898;28;20027;-75
2024/03/04 08:01:02;;;;;;;9.73;3.72;;;9.50;99.90;;;;;;5084154;28;20108;-74
2024/03/04 08:03:28;;;;;;;8.57;3.60;;;9.50;99.90;;;;;;5077323;28;20381;-75
2024/03/04 08:05:54;;;;;;;8.23;3.22;;;9.60;99.90;;;;;;5077891;28;20025;-75
2024/03/04 08:08:19;;;;;;;9.23;3.88;;;9.60;99.90;;;;;;5083892;28;20521;-72
2024/03/04 08:10:45;;;;;;;10.80;3.75;;;9.60;99.90;;;;;;5081056;28;20048;-74
2024/03/04 08:13:11;;;;;;;6.53;3.47;;;9.60;99.90;;;;;;5087933;28;20859;-73
2024/03/04 08:15:37;;;;;;;8.27;3.25;;;9.70;99.90;;;;;;5084715;28;20028;-74
2024/03/04 08:18:03;;;;;;;6.05;3.08;;;9.70;99.90;;;;;;5085197;28;20020;-74
2024/03/04 08:20:28;;;;;;;8.18;3.58;;;9.80;99.90;;;;;;5087161;28;20020;-74
2024/03/04 08:22:54;;;;;;;6.18;3.58;;;9.80;99.90;;;;;;5087003;28;20494;-74
2024/03/04 08:25:20;;;;;;;6.32;3.47;;;9.80;99.90;;;;;;5079651;28;20031;-74
2024/03/04 08:27:46;;;;;;;9.10;3.20;;;9.80;99.90;;;;;;5058553;28;20044;-74
2024/03/04 08:30:15;;;;;;;11.63;3.20;;;9.90;99.90;;;;;;5087476;28;20141;-74
2024/03/04 08:32:44;;;;;;;6.15;3.00;;;9.90;99.90;;;;;;5089311;28;20477;-74
2024/03/04 08:35:10;;;;;;;6.85;3.15;;;9.90;99.90;;;;;;5067228;28;20062;-74
2024/03/04 08:37:35;;;;;;;9.23;2.80;;;10.00;99.90;;;;;;5068738;28;20129;-74
2024/03/04 08:40:04;;;;;;;5.90;2.72;;;10.10;99.90;;;;;;5074842;28;20166;-74
2024/03/04 08:42:30;;;;;;;6.50;2.50;;;10.20;99.90;;;;;;5075268;28;20480;-74
2024/03/04 08:44:56;;;;;;;6.65;2.55;;;10.20;99.90;;;;;;5078157;28;20036;-74
2024/03/04 08:47:22;;;;;;;6.88;2.97;;;10.20;99.90;;;;;;5071160;28;20059;-73
2024/03/04 08:49:48;;;;;;;3.55;2.05;;;10.30;99.90;;;;;;5051575;28;20086;-73
2024/03/04 08:52:13;;;;;;;6.10;2.33;;;10.30;99.90;;;;;;5066212;28;20192;-74
2024/03/04 08:54:39;;;;;;;7.18;2.55;;;10.40;99.90;;;;;;5067398;28;20032;-74
2024/03/04 08:57:05;;;;;;;5.88;2.70;;;10.50;99.90;;;;;;5085733;28;20640;-72
2024/03/04 08:59:31;;;;;;;8.48;2.60;;;10.50;99.90;;;;;;5084747;28;20225;-74
2024/03/04 09:01:57;;;;;;;6.28;2.67;;;10.60;99.90;;;;;;5067085;28;20020;-72
2024/03/04 09:04:22;;;;;;;5.20;2.42;;;10.60;99.90;;;;;;5085845;28;20051;-74
2024/03/04 09:06:49;;;;;;;6.95;2.38;;;10.60;99.90;;;;;;5084642;28;20495;-74
2024/03/04 09:09:15;;;;;;;4.63;2.10;;;10.70;99.90;;;;;;5087561;28;20059;-74
2024/03/04 09:11:41;;;;;;;4.78;2.33;;;10.80;99.90;;;;;;5084799;28;20020;-74
2024/03/04 09:14:07;;;;;;;6.20;2.33;;;10.80;99.90;;;;;;5085184;28;20020;-74
2024/03/04 09:16:33;;;;;;;3.72;2.00;;;10.80;99.90;;;;;;5066236;28;20420;-74
2024/03/04 09:18:59;;;;;;;6.32;2.20;;;10.80;99.90;;;;;;5085026;28;20030;-75
2024/03/04 09:21:25;;;;;;;3.08;1.58;;;10.90;99.90;;;;;;5065798;28;20474;-74
2024/03/04 09:23:53;;;;;;;3.47;1.92;;;10.90;99.90;;;;;;5086342;28;20039;-75
2024/03/04 09:26:19;;;;;;;5.40;2.30;;;10.90;99.90;;;;;;5086359;28;20141;-74
2024/03/04 09:28:51;;;;;;;4.38;2.00;;;10.90;99.90;;;;;;5068037;28;20112;-74
2024/03/04 09:31:17;;;;;;;4.00;1.65;;;11.00;99.90;;;;;;5079592;28;20036;-74
2024/03/04 09:33:47;;;;;;;2.90;1.55;;;11.00;99.90;;;;;;5086875;28;20044;-75
2024/03/04 09:36:13;;;;;;;4.95;1.98;;;11.00;99.90;;;;;;5089529;28;20023;-74
2024/03/04 09:38:42;;;;;;;6.13;2.15;;;11.10;99.90;;;;;;5073108;28;20079;-74
2024/03/04 09:41:08;;;;;;;5.30;2.22;;;11.10;99.90;;;;;;5085976;28;20020;-74
2024/03/04 09:43:37;;;;;;;4.43;1.80;;;11.10;99.90;;;;;;5086278;28;20028;-74
2024/03/04 09:46:07;;;;;;;6.10;2.08;;;11.10;99.90;;;;;;5072354;28;20028;-74
2024/03/04 09:48:35;;;;;;;4.13;1.90;;;11.10;99.90;;;;;;5068571;28;20252;-74
2024/03/04 09:51:02;;;;;;;3.58;1.65;;;11.10;99.90;;;;;;5086346;28;20040;-75
2024/03/04 09:53:31;;;;;;;5.95;1.88;;;11.10;99.90;;;;;;5086527;28;20085;-75
2024/03/04 09:55:57;;;;;;;7.38;2.08;;;11.20;99.90;;;;;;5086085;28;20099;-75
2024/03/04 09:58:22;;;;;;;5.30;1.80;;;11.20;99.90;;;;;;5086546;28;20099;-75
2024/03/04 10:00:48;;;;;;;3.38;1.75;;;11.20;99.90;;;;;;5085946;28;20039;-75
2024/03/04 10:03:17;;;;;;;3.80;1.90;;;11.20;99.90;;;;;;5086544;28;20037;-76
2024/03/04 10:05:45;;;;;;;4.65;1.83;;;11.20;99.90;;;;;;5071447;28;20021;-75
2024/03/04 10:08:11;;;;;;;4.40;1.73;;;11.10;99.90;;;;;;5085775;28;20032;-75
2024/03/04 10:10:36;;;;;;;5.60;1.70;;;11.20;99.90;;;;;;5085751;28;20034;-75
2024/03/04 10:13:08;;;;;;;5.30;2.00;;;11.10;99.90;;;;;;5086015;28;20099;-75
2024/03/04 10:15:34;;;;;;;5.28;1.90;;;11.20;99.90;;;;;;5086130;28;20021;-75
2024/03/04 10:18:10;;;;;;;6.88;1.92;;;11.20;99.90;;;;;;5085508;28;20012;-75
2024/03/04 10:20:37;;;;;;;4.43;1.98;;;11.20;99.90;;;;;;5073468;28;20050;-77
2024/03/04 10:23:03;;;;;;;6.15;1.80;;;11.20;99.90;;;;;;5069063;28;20142;-75
2024/03/04 10:25:28;;;;;;;3.60;1.60;;;11.30;99.90;;;;;;5066965;28;20364;-75
2024/03/04 10:27:54;;;;;;;3.58;1.67;;;11.40;99.90;;;;;;5084055;28;20020;-74
2024/03/04 10:30:22;;;;;;;5.57;1.88;;;11.50;99.90;;;;;;5085238;28;20024;-74
2024/03/04 10:32:56;;;;;;;4.63;1.95;;;11.50;99.90;;;;;;5083407;28;20073;-75
2024/03/04 10:35:22;;;;;;;5.13;1.70;;;11.60;99.90;;;;;;5094169;28;20396;-75
2024/03/04 10:37:50;;;;;;;4.25;1.60;;;11.60;99.90;;;;;;5089885;28;20031;-75
2024/03/04 10:40:20;;;;;;;4.90;1.45;;;11.70;99.90;;;;;;5092465;28;20059;-75
2024/03/04 10:42:46;;;;;;;4.97;1.48;;;11.80;99.90;;;;;;5070365;28;20515;-75
2024/03/04 10:45:14;;;;;;;2.92;1.42;;;11.80;99.90;;;;;;5089006;28;20039;-75
2024/03/04 10:47:41;;;;;;;4.90;1.40;;;11.90;99.90;;;;;;5078104;28;20024;-75
2024/03/04 10:50:08;;;;;;;3.70;1.50;;;11.90;99.90;;;;;;5059345;28;20044;-75
2024/03/04 10:52:34;;;;;;;3.45;1.60;;;12.00;99.90;;;;;;5086652;28;20069;-75
2024/03/04 10:55:00;;;;;;;3.88;1.60;;;12.00;99.90;;;;;;5088241;28;20692;-75
2024/03/04 10:57:30;;;;;;;4.05;1.50;;;12.10;99.90;;;;;;5082438;28;20025;-75
2024/03/04 10:59:57;;;;;;;8.02;2.13;;;12.10;99.90;;;;;;5088284;28;20102;-76
2024/03/04 11:02:41;;;;;;;3.78;1.40;;;12.20;99.90;;;;;;5092112;28;20115;-75
2024/03/04 11:05:11;;;;;;;3.05;1.48;;;12.20;99.90;;;;;;5092846;28;20020;-75
2024/03/04 11:07:48;;;;;;;3.10;1.40;;;12.30;99.90;;;;;;5082545;28;20094;-75
2024/03/04 11:10:27;;;;;;;4.85;1.90;;;12.20;99.90;;;;;;5092621;28;20439;-75
2024/03/04 11:13:14;;;;;;;3.15;1.05;;;12.30;99.90;;;;;;5088303;28;20489;-76
2024/03/04 11:15:55;;;;;;;4.35;1.48;;;12.30;99.90;;;;;;5078551;28;20444;-75
2024/03/04 11:18:41;;;;;;;5.47;1.30;;;12.30;99.90;;;;;;5088709;28;20020;-76
2024/03/04 11:21:07;;;;;;;2.17;1.15;;;12.30;99.90;;;;;;5088050;28;20034;-75
2024/03/04 11:23:36;;;;;;;3.17;1.15;;;12.30;99.90;;;;;;5088042;28;20108;-75
2024/03/04 11:26:03;;;;;;;1.73;1.08;;;12.40;99.90;;;;;;5069873;28;20042;-75
2024/03/04 11:28:30;;;;;;;3.20;0.90;;;12.50;99.90;;;;;;5080104;28;20043;-75
2024/03/04 11:30:56;;;;;;;3.92;1.25;;;12.50;99.90;;;;;;5070357;28;20038;-75
2024/03/04 11:33:38;;;;;;;2.58;0.90;;;12.50;99.90;;;;;;5088074;28;20059;-75
2024/03/04 11:36:05;;;;;;;4.75;0.90;;;12.60;99.90;;;;;;5076561;28;20065;-75
2024/03/04 11:38:38;;;;;;;2.97;0.82;;;12.70;99.90;;;;;;5088667;28;20032;-75
2024/03/04 11:41:04;;;;;;;1.83;0.80;;;12.70;99.90;;;;;;5088212;28;20484;-76
2024/03/04 11:43:43;;;;;;;2.88;0.68;;;12.70;99.90;;;;;;5098529;28;20019;-75
2024/03/04 11:46:14;;;;;;;1.75;0.70;;;12.70;99.90;;;;;;5071009;28;20633;-75
2024/03/04 11:48:41;;;;;;;3.13;0.63;;;12.60;99.90;;;;;;5077978;28;20504;-75
2024/03/04 11:51:07;;;;;;;1.27;0.55;;;12.70;99.90;;;;;;5083994;28;20051;-75
2024/03/04 11:53:35;;;;;;;3.65;0.70;;;12.70;99.90;;;;;;5090110;28;20012;-75
2024/03/04 11:56:02;;;;;;;3.67;0.70;;;12.70;99.90;;;;;;5084516;28;20023;-74
2024/03/04 11:58:28;;;;;;;3.38;0.88;;;12.70;99.90;;;;;;5086540;28;20091;-76
2024/03/04 12:00:56;;;;;;;3.88;0.80;;;12.70;99.90;;;;;;5084718;28;20052;-75
2024/03/04 12:03:21;;;;;;;2.10;1.00;;;12.70;99.90;;;;;;5082584;28;20329;-75
2024/03/04 12:05:47;;;;;;;4.55;1.33;;;12.70;99.90;;;;;;5081076;28;20750;-76
2024/03/04 12:08:13;;;;;;;6.25;1.73;;;12.80;99.90;;;;;;5066224;28;20396;-75
2024/03/04 12:10:40;;;;;;;4.85;1.80;;;12.80;99.90;;;;;;5065340;28;20020;-75
2024/03/04 12:13:05;;;;;;;2.28;1.50;;;12.70;99.90;;;;;;5082767;28;20031;-75
2024/03/04 12:15:31;;;;;;;4.70;1.52;;;12.70;99.90;;;;;;5085772;28;20020;-73
2024/03/04 12:17:57;;;;;;;3.80;1.52;;;12.80;99.90;;;;;;5066421;28;20020;-74
2024/03/04 12:20:26;;;;;;;6.30;1.88;;;12.80;99.90;;;;;;5083451;28;20048;-75
2024/03/04 12:22:52;;;;;;;4.38;1.65;;;12.90;99.90;;;;;;5090075;28;20697;-75
2024/03/04 12:25:22;;;;;;;4.57;1.35;;;12.80;99.90;;;;;;5086056;28;20280;-75
2024/03/04 12:27:55;;;;;;;3.92;1.23;;;12.80;99.90;;;;;;5065918;28;20559;-75
2024/03/04 12:30:25;;;;;;;2.55;1.30;;;12.80;99.90;;;;;;5085642;28;20102;-75
2024/03/04 12:32:52;;;;;;;3.60;1.40;;;12.70;99.90;;;;;;5083119;28;20111;-75
2024/03/04 12:35:26;;;;;;;1.90;1.15;;;12.70;99.90;;;;;;5082358;28;20020;-75
2024/03/04 12:37:54;;;;;;;5.00;1.30;;;12.70;99.90;;;;;;5071194;28;20123;-74
2024/03/04 12:40:24;;;;;;;2.47;1.13;;;12.70;99.90;;;;;;5091198;28;20028;-75
2024/03/04 12:42:58;;;;;;;3.38;1.13;;;12.70;99.90;;;;;;5090648;28;20032;-74
2024/03/04 12:45:25;;;;;;;6.15;1.33;;;12.70;99.90;;;;;;5086939;28;20069;-75